sensor_id;sensor_type;location;lat;lon;timestamp;P1;durP1;ratioP1;P2;durP2;ratioP2
10201;SDS011;5143;42.584;23.164;2023-06-10T00:00:38;10.37;;;4.93;;
10201;SDS011;5143;42.584;23.164;2023-06-10T00:03:06;6.63;;;4.50;;
10201;SDS011;5143;42.584;23.164;2023-06-10T00:05:33;7.53;;;4.20;;
10201;SDS011;5143;42.584;23.164;2023-06-10T00:08:02;9.17;;;4.60;;
10201;SDS011;5143;42.584;23.164;2023-06-10T00:10:32;8.33;;;4.40;;
10201;SDS011;5143;42.584;23.164;2023-06-10T00:13:00;10.33;;;4.90;;
10201;SDS011;5143;42.584;23.164;2023-06-10T00:15:26;8.47;;;4.43;;
10201;SDS011;5143;42.584;23.164;2023-06-10T00:17:53;11.17;;;4.90;;
10201;SDS011;5143;42.584;23.164;2023-06-10T00:20:20;8.43;;;5.00;;
10201;SDS011;5143;42.584;23.164;2023-06-10T00:22:48;7.77;;;4.60;;
10201;SDS011;5143;42.584;23.164;2023-06-10T00:25:16;6.30;;;4.80;;
10201;SDS011;5143;42.584;23.164;2023-06-10T00:27:43;8.53;;;4.80;;
10201;SDS011;5143;42.584;23.164;2023-06-10T00:30:10;8.90;;;4.47;;
10201;SDS011;5143;42.584;23.164;2023-06-10T00:32:37;11.23;;;4.13;;
10201;SDS011;5143;42.584;23.164;2023-06-10T00:35:04;5.10;;;3.93;;
10201;SDS011;5143;42.584;23.164;2023-06-10T00:37:30;4.93;;;3.97;;
10201;SDS011;5143;42.584;23.164;2023-06-10T00:39:57;6.47;;;4.13;;
10201;SDS011;5143;42.584;23.164;2023-06-10T00:42:25;4.30;;;3.90;;
10201;SDS011;5143;42.584;23.164;2023-06-10T00:44:51;6.37;;;4.17;;
10201;SDS011;5143;42.584;23.164;2023-06-10T00:47:18;4.50;;;3.47;;
10201;SDS011;5143;42.584;23.164;2023-06-10T00:49:44;5.23;;;4.10;;
10201;SDS011;5143;42.584;23.164;2023-06-10T00:52:11;8.30;;;4.00;;
10201;SDS011;5143;42.584;23.164;2023-06-10T00:54:38;7.60;;;4.00;;
10201;SDS011;5143;42.584;23.164;2023-06-10T00:57:05;5.33;;;3.73;;
10201;SDS011;5143;42.584;23.164;2023-06-10T00:59:33;8.27;;;3.67;;
10201;SDS011;5143;42.584;23.164;2023-06-10T01:02:00;7.60;;;3.80;;
10201;SDS011;5143;42.584;23.164;2023-06-10T01:04:27;9.43;;;3.60;;
10201;SDS011;5143;42.584;23.164;2023-06-10T01:06:54;12.03;;;3.97;;
10201;SDS011;5143;42.584;23.164;2023-06-10T01:09:23;5.53;;;3.83;;
10201;SDS011;5143;42.584;23.164;2023-06-10T01:11:52;6.37;;;4.10;;
10201;SDS011;5143;42.584;23.164;2023-06-10T01:14:21;8.87;;;4.20;;
10201;SDS011;5143;42.584;23.164;2023-06-10T01:16:51;13.03;;;4.07;;
10201;SDS011;5143;42.584;23.164;2023-06-10T01:19:18;10.03;;;3.80;;
10201;SDS011;5143;42.584;23.164;2023-06-10T01:21:46;5.63;;;3.87;;
10201;SDS011;5143;42.584;23.164;2023-06-10T01:24:13;9.57;;;4.70;;
10201;SDS011;5143;42.584;23.164;2023-06-10T01:26:43;5.30;;;4.57;;
10201;SDS011;5143;42.584;23.164;2023-06-10T01:29:14;6.50;;;3.83;;
10201;SDS011;5143;42.584;23.164;2023-06-10T01:31:42;8.30;;;4.93;;
10201;SDS011;5143;42.584;23.164;2023-06-10T01:34:12;9.33;;;4.50;;
10201;SDS011;5143;42.584;23.164;2023-06-10T01:36:40;10.00;;;5.20;;
10201;SDS011;5143;42.584;23.164;2023-06-10T01:39:08;7.57;;;4.30;;
10201;SDS011;5143;42.584;23.164;2023-06-10T01:41:37;9.43;;;4.80;;
10201;SDS011;5143;42.584;23.164;2023-06-10T01:44:03;5.73;;;4.43;;
10201;SDS011;5143;42.584;23.164;2023-06-10T01:46:30;4.30;;;3.90;;
10201;SDS011;5143;42.584;23.164;2023-06-10T01:48:56;5.23;;;4.57;;
10201;SDS011;5143;42.584;23.164;2023-06-10T01:51:23;4.80;;;4.30;;
10201;SDS011;5143;42.584;23.164;2023-06-10T01:53:50;9.57;;;5.03;;
10201;SDS011;5143;42.584;23.164;2023-06-10T01:56:18;9.83;;;4.80;;
10201;SDS011;5143;42.584;23.164;2023-06-10T01:58:45;7.17;;;4.57;;
10201;SDS011;5143;42.584;23.164;2023-06-10T02:01:11;8.60;;;4.33;;
10201;SDS011;5143;42.584;23.164;2023-06-10T02:03:38;9.27;;;4.30;;
10201;SDS011;5143;42.584;23.164;2023-06-10T02:06:05;6.37;;;4.07;;
10201;SDS011;5143;42.584;23.164;2023-06-10T02:08:31;5.77;;;4.53;;
10201;SDS011;5143;42.584;23.164;2023-06-10T02:10:58;7.33;;;4.87;;
10201;SDS011;5143;42.584;23.164;2023-06-10T02:13:26;10.33;;;5.10;;
10201;SDS011;5143;42.584;23.164;2023-06-10T02:15:52;6.97;;;4.60;;
10201;SDS011;5143;42.584;23.164;2023-06-10T02:18:19;7.60;;;5.20;;
10201;SDS011;5143;42.584;23.164;2023-06-10T02:20:47;11.47;;;5.27;;
10201;SDS011;5143;42.584;23.164;2023-06-10T02:23:13;10.77;;;5.40;;
10201;SDS011;5143;42.584;23.164;2023-06-10T02:25:40;8.50;;;5.00;;
10201;SDS011;5143;42.584;23.164;2023-06-10T02:28:06;7.63;;;5.10;;
10201;SDS011;5143;42.584;23.164;2023-06-10T02:30:34;9.50;;;5.17;;
10201;SDS011;5143;42.584;23.164;2023-06-10T02:33:02;6.17;;;4.20;;
10201;SDS011;5143;42.584;23.164;2023-06-10T02:35:28;8.47;;;4.40;;
10201;SDS011;5143;42.584;23.164;2023-06-10T02:37:55;13.03;;;4.43;;
10201;SDS011;5143;42.584;23.164;2023-06-10T02:40:21;11.13;;;5.13;;
10201;SDS011;5143;42.584;23.164;2023-06-10T02:42:48;9.00;;;5.03;;
10201;SDS011;5143;42.584;23.164;2023-06-10T02:45:15;9.40;;;4.87;;
10201;SDS011;5143;42.584;23.164;2023-06-10T02:47:43;12.73;;;4.50;;
10201;SDS011;5143;42.584;23.164;2023-06-10T02:50:09;11.57;;;4.70;;
10201;SDS011;5143;42.584;23.164;2023-06-10T02:52:36;9.57;;;4.53;;
10201;SDS011;5143;42.584;23.164;2023-06-10T02:55:02;10.80;;;4.57;;
10201;SDS011;5143;42.584;23.164;2023-06-10T02:57:29;10.93;;;4.67;;
10201;SDS011;5143;42.584;23.164;2023-06-10T02:59:55;9.07;;;4.43;;
10201;SDS011;5143;42.584;23.164;2023-06-10T03:02:23;7.07;;;4.63;;
10201;SDS011;5143;42.584;23.164;2023-06-10T03:04:55;6.30;;;4.30;;
10201;SDS011;5143;42.584;23.164;2023-06-10T03:07:21;9.70;;;4.90;;
10201;SDS011;5143;42.584;23.164;2023-06-10T03:09:48;6.10;;;4.37;;
10201;SDS011;5143;42.584;23.164;2023-06-10T03:12:14;9.57;;;4.03;;
10201;SDS011;5143;42.584;23.164;2023-06-10T03:14:41;7.93;;;4.50;;
10201;SDS011;5143;42.584;23.164;2023-06-10T03:17:08;8.27;;;4.20;;
10201;SDS011;5143;42.584;23.164;2023-06-10T03:19:34;10.43;;;4.60;;
10201;SDS011;5143;42.584;23.164;2023-06-10T03:22:10;11.30;;;5.17;;
10201;SDS011;5143;42.584;23.164;2023-06-10T03:24:37;11.30;;;4.63;;
10201;SDS011;5143;42.584;23.164;2023-06-10T03:27:05;5.83;;;4.40;;
10201;SDS011;5143;42.584;23.164;2023-06-10T03:29:32;7.10;;;4.50;;
10201;SDS011;5143;42.584;23.164;2023-06-10T03:31:58;14.80;;;5.20;;
10201;SDS011;5143;42.584;23.164;2023-06-10T03:34:25;10.37;;;4.90;;
10201;SDS011;5143;42.584;23.164;2023-06-10T03:36:51;5.00;;;4.50;;
10201;SDS011;5143;42.584;23.164;2023-06-10T03:39:19;9.10;;;4.97;;
10201;SDS011;5143;42.584;23.164;2023-06-10T03:41:46;6.23;;;5.20;;
10201;SDS011;5143;42.584;23.164;2023-06-10T03:44:12;10.07;;;5.80;;
10201;SDS011;5143;42.584;23.164;2023-06-10T03:46:38;7.70;;;5.50;;
10201;SDS011;5143;42.584;23.164;2023-06-10T03:49:05;16.13;;;6.30;;
10201;SDS011;5143;42.584;23.164;2023-06-10T03:51:31;10.33;;;5.87;;
10201;SDS011;5143;42.584;23.164;2023-06-10T03:53:58;10.70;;;6.30;;
10201;SDS011;5143;42.584;23.164;2023-06-10T03:56:26;8.67;;;5.60;;
10201;SDS011;5143;42.584;23.164;2023-06-10T03:58:53;9.20;;;5.73;;
10201;SDS011;5143;42.584;23.164;2023-06-10T04:01:20;9.03;;;5.67;;
10201;SDS011;5143;42.584;23.164;2023-06-10T04:03:46;12.90;;;6.27;;
10201;SDS011;5143;42.584;23.164;2023-06-10T04:06:14;7.53;;;5.30;;
10201;SDS011;5143;42.584;23.164;2023-06-10T04:08:41;8.50;;;5.57;;
10201;SDS011;5143;42.584;23.164;2023-06-10T04:11:07;8.97;;;5.50;;
10201;SDS011;5143;42.584;23.164;2023-06-10T04:13:35;10.53;;;5.53;;
10201;SDS011;5143;42.584;23.164;2023-06-10T04:16:03;6.93;;;5.43;;
10201;SDS011;5143;42.584;23.164;2023-06-10T04:18:29;8.53;;;5.40;;
10201;SDS011;5143;42.584;23.164;2023-06-10T04:20:55;9.53;;;5.10;;
10201;SDS011;5143;42.584;23.164;2023-06-10T04:23:22;7.60;;;5.03;;
10201;SDS011;5143;42.584;23.164;2023-06-10T04:25:48;7.30;;;4.73;;
10201;SDS011;5143;42.584;23.164;2023-06-10T04:28:15;7.53;;;4.97;;
10201;SDS011;5143;42.584;23.164;2023-06-10T04:30:43;7.67;;;5.40;;
10201;SDS011;5143;42.584;23.164;2023-06-10T04:33:10;7.63;;;4.93;;
10201;SDS011;5143;42.584;23.164;2023-06-10T04:35:36;9.83;;;5.50;;
10201;SDS011;5143;42.584;23.164;2023-06-10T04:38:03;8.33;;;5.40;;
10201;SDS011;5143;42.584;23.164;2023-06-10T04:40:29;9.53;;;5.83;;
10201;SDS011;5143;42.584;23.164;2023-06-10T04:42:56;8.10;;;4.47;;
10201;SDS011;5143;42.584;23.164;2023-06-10T04:45:22;9.93;;;4.80;;
10201;SDS011;5143;42.584;23.164;2023-06-10T04:47:50;9.23;;;4.80;;
10201;SDS011;5143;42.584;23.164;2023-06-10T04:50:16;8.10;;;5.27;;
10201;SDS011;5143;42.584;23.164;2023-06-10T04:52:43;13.23;;;4.97;;
10201;SDS011;5143;42.584;23.164;2023-06-10T04:55:10;8.33;;;4.80;;
10201;SDS011;5143;42.584;23.164;2023-06-10T04:57:36;10.57;;;5.60;;
10201;SDS011;5143;42.584;23.164;2023-06-10T05:00:03;8.97;;;4.90;;
10201;SDS011;5143;42.584;23.164;2023-06-10T05:02:31;9.00;;;5.10;;
10201;SDS011;5143;42.584;23.164;2023-06-10T05:04:59;9.40;;;5.07;;
10201;SDS011;5143;42.584;23.164;2023-06-10T05:07:25;9.13;;;5.43;;
10201;SDS011;5143;42.584;23.164;2023-06-10T05:09:52;8.50;;;5.63;;
10201;SDS011;5143;42.584;23.164;2023-06-10T05:12:18;9.10;;;5.80;;
10201;SDS011;5143;42.584;23.164;2023-06-10T05:14:45;22.87;;;6.40;;
10201;SDS011;5143;42.584;23.164;2023-06-10T05:17:11;17.47;;;6.53;;
10201;SDS011;5143;42.584;23.164;2023-06-10T05:19:38;10.53;;;6.13;;
10201;SDS011;5143;42.584;23.164;2023-06-10T05:22:06;12.47;;;5.93;;
10201;SDS011;5143;42.584;23.164;2023-06-10T05:24:32;13.13;;;6.30;;
10201;SDS011;5143;42.584;23.164;2023-06-10T05:26:58;14.00;;;7.00;;
10201;SDS011;5143;42.584;23.164;2023-06-10T05:29:25;11.87;;;5.80;;
10201;SDS011;5143;42.584;23.164;2023-06-10T05:31:52;13.77;;;6.90;;
10201;SDS011;5143;42.584;23.164;2023-06-10T05:34:18;8.10;;;5.70;;
10201;SDS011;5143;42.584;23.164;2023-06-10T05:36:45;8.30;;;6.03;;
10201;SDS011;5143;42.584;23.164;2023-06-10T05:39:13;11.73;;;6.27;;
10201;SDS011;5143;42.584;23.164;2023-06-10T05:41:40;9.87;;;6.13;;
10201;SDS011;5143;42.584;23.164;2023-06-10T05:44:06;13.17;;;6.17;;
10201;SDS011;5143;42.584;23.164;2023-06-10T05:46:32;9.67;;;6.20;;
10201;SDS011;5143;42.584;23.164;2023-06-10T05:48:59;12.13;;;6.30;;
10201;SDS011;5143;42.584;23.164;2023-06-10T05:51:26;13.53;;;6.17;;
10201;SDS011;5143;42.584;23.164;2023-06-10T05:53:53;14.07;;;6.10;;
10201;SDS011;5143;42.584;23.164;2023-06-10T05:56:21;10.10;;;6.20;;
10201;SDS011;5143;42.584;23.164;2023-06-10T05:58:48;13.73;;;6.03;;
10201;SDS011;5143;42.584;23.164;2023-06-10T06:01:15;8.53;;;5.70;;
10201;SDS011;5143;42.584;23.164;2023-06-10T06:03:41;11.83;;;6.00;;
10201;SDS011;5143;42.584;23.164;2023-06-10T06:06:08;10.53;;;6.00;;
10201;SDS011;5143;42.584;23.164;2023-06-10T06:08:34;15.50;;;6.13;;
10201;SDS011;5143;42.584;23.164;2023-06-10T06:11:01;13.57;;;6.00;;
10201;SDS011;5143;42.584;23.164;2023-06-10T06:13:29;10.67;;;5.77;;
10201;SDS011;5143;42.584;23.164;2023-06-10T06:15:55;9.70;;;5.43;;
10201;SDS011;5143;42.584;23.164;2023-06-10T06:18:21;12.03;;;5.87;;
10201;SDS011;5143;42.584;23.164;2023-06-10T06:20:48;12.17;;;5.17;;
10201;SDS011;5143;42.584;23.164;2023-06-10T06:23:15;9.30;;;5.33;;
10201;SDS011;5143;42.584;23.164;2023-06-10T06:25:41;16.13;;;5.47;;
10201;SDS011;5143;42.584;23.164;2023-06-10T06:28:09;11.33;;;5.80;;
10201;SDS011;5143;42.584;23.164;2023-06-10T06:30:37;12.43;;;5.90;;
10201;SDS011;5143;42.584;23.164;2023-06-10T06:33:03;10.90;;;5.80;;
10201;SDS011;5143;42.584;23.164;2023-06-10T06:35:30;10.00;;;5.33;;
10201;SDS011;5143;42.584;23.164;2023-06-10T06:37:57;9.70;;;5.93;;
10201;SDS011;5143;42.584;23.164;2023-06-10T06:40:24;12.07;;;5.17;;
10201;SDS011;5143;42.584;23.164;2023-06-10T06:42:50;17.43;;;5.70;;
10201;SDS011;5143;42.584;23.164;2023-06-10T06:45:16;17.73;;;5.83;;
10201;SDS011;5143;42.584;23.164;2023-06-10T06:47:44;11.17;;;5.50;;
10201;SDS011;5143;42.584;23.164;2023-06-10T06:50:11;11.73;;;6.20;;
10201;SDS011;5143;42.584;23.164;2023-06-10T06:52:38;10.77;;;5.47;;
10201;SDS011;5143;42.584;23.164;2023-06-10T06:55:04;13.40;;;5.13;;
10201;SDS011;5143;42.584;23.164;2023-06-10T06:57:31;10.33;;;5.10;;
10201;SDS011;5143;42.584;23.164;2023-06-10T06:59:58;9.93;;;5.10;;
10201;SDS011;5143;42.584;23.164;2023-06-10T07:02:24;12.13;;;5.57;;
10201;SDS011;5143;42.584;23.164;2023-06-10T07:04:52;11.97;;;5.03;;
10201;SDS011;5143;42.584;23.164;2023-06-10T07:07:21;12.33;;;4.50;;
10201;SDS011;5143;42.584;23.164;2023-06-10T07:09:47;9.37;;;4.50;;
10201;SDS011;5143;42.584;23.164;2023-06-10T07:12:14;8.57;;;4.47;;
10201;SDS011;5143;42.584;23.164;2023-06-10T07:14:40;13.47;;;5.20;;
10201;SDS011;5143;42.584;23.164;2023-06-10T07:17:07;16.10;;;5.73;;
10201;SDS011;5143;42.584;23.164;2023-06-10T07:19:33;11.97;;;4.93;;
10201;SDS011;5143;42.584;23.164;2023-06-10T07:22:01;9.80;;;4.97;;
10201;SDS011;5143;42.584;23.164;2023-06-10T07:24:28;16.40;;;4.33;;
10201;SDS011;5143;42.584;23.164;2023-06-10T07:26:54;16.10;;;5.83;;
10201;SDS011;5143;42.584;23.164;2023-06-10T07:29:21;12.27;;;5.60;;
10201;SDS011;5143;42.584;23.164;2023-06-10T07:31:47;12.00;;;5.10;;
10201;SDS011;5143;42.584;23.164;2023-06-10T07:34:14;9.33;;;5.33;;
10201;SDS011;5143;42.584;23.164;2023-06-10T07:36:40;13.17;;;5.50;;
10201;SDS011;5143;42.584;23.164;2023-06-10T07:39:08;13.20;;;5.07;;
10201;SDS011;5143;42.584;23.164;2023-06-10T07:41:35;13.17;;;5.17;;
10201;SDS011;5143;42.584;23.164;2023-06-10T07:44:01;10.40;;;5.37;;
10201;SDS011;5143;42.584;23.164;2023-06-10T07:46:28;15.00;;;5.97;;
10201;SDS011;5143;42.584;23.164;2023-06-10T07:48:54;11.27;;;4.50;;
10201;SDS011;5143;42.584;23.164;2023-06-10T07:51:21;16.40;;;5.10;;
10201;SDS011;5143;42.584;23.164;2023-06-10T07:53:48;19.07;;;5.77;;
10201;SDS011;5143;42.584;23.164;2023-06-10T07:56:16;15.47;;;5.93;;
10201;SDS011;5143;42.584;23.164;2023-06-10T07:58:43;17.83;;;6.23;;
10201;SDS011;5143;42.584;23.164;2023-06-10T08:01:09;16.13;;;6.10;;
10201;SDS011;5143;42.584;23.164;2023-06-10T08:03:36;18.53;;;5.57;;
10201;SDS011;5143;42.584;23.164;2023-06-10T08:06:03;17.43;;;5.97;;
10201;SDS011;5143;42.584;23.164;2023-06-10T08:08:30;17.20;;;6.20;;
10201;SDS011;5143;42.584;23.164;2023-06-10T08:10:57;20.40;;;6.50;;
10201;SDS011;5143;42.584;23.164;2023-06-10T08:13:25;18.93;;;6.07;;
10201;SDS011;5143;42.584;23.164;2023-06-10T08:15:51;19.77;;;5.80;;
10201;SDS011;5143;42.584;23.164;2023-06-10T08:18:20;12.83;;;5.00;;
10201;SDS011;5143;42.584;23.164;2023-06-10T08:20:46;13.57;;;4.80;;
10201;SDS011;5143;42.584;23.164;2023-06-10T08:23:13;12.43;;;4.90;;
10201;SDS011;5143;42.584;23.164;2023-06-10T08:25:40;6.67;;;2.87;;
10201;SDS011;5143;42.584;23.164;2023-06-10T08:28:06;4.23;;;2.30;;
10201;SDS011;5143;42.584;23.164;2023-06-10T08:30:34;5.27;;;2.60;;
10201;SDS011;5143;42.584;23.164;2023-06-10T08:33:01;9.70;;;2.60;;
10201;SDS011;5143;42.584;23.164;2023-06-10T08:35:27;6.60;;;2.20;;
10201;SDS011;5143;42.584;23.164;2023-06-10T08:37:54;6.67;;;2.00;;
10201;SDS011;5143;42.584;23.164;2023-06-10T08:40:20;3.03;;;1.80;;
10201;SDS011;5143;42.584;23.164;2023-06-10T08:42:49;8.07;;;1.80;;
10201;SDS011;5143;42.584;23.164;2023-06-10T08:45:19;5.90;;;2.13;;
10201;SDS011;5143;42.584;23.164;2023-06-10T08:47:49;3.47;;;1.90;;
10201;SDS011;5143;42.584;23.164;2023-06-10T08:50:16;3.53;;;2.03;;
10201;SDS011;5143;42.584;23.164;2023-06-10T08:52:43;2.67;;;1.60;;
10201;SDS011;5143;42.584;23.164;2023-06-10T08:55:11;12.10;;;2.50;;
10201;SDS011;5143;42.584;23.164;2023-06-10T08:57:38;2.63;;;1.80;;
10201;SDS011;5143;42.584;23.164;2023-06-10T09:00:07;3.13;;;2.10;;
10201;SDS011;5143;42.584;23.164;2023-06-10T09:02:33;2.57;;;1.60;;
10201;SDS011;5143;42.584;23.164;2023-06-10T09:05:03;7.67;;;2.10;;
10201;SDS011;5143;42.584;23.164;2023-06-10T09:07:29;3.50;;;1.53;;
10201;SDS011;5143;42.584;23.164;2023-06-10T09:09:59;2.50;;;1.87;;
10201;SDS011;5143;42.584;23.164;2023-06-10T09:12:28;1.97;;;1.60;;
10201;SDS011;5143;42.584;23.164;2023-06-10T09:14:54;2.77;;;1.77;;
10201;SDS011;5143;42.584;23.164;2023-06-10T09:17:21;3.90;;;1.80;;
10201;SDS011;5143;42.584;23.164;2023-06-10T09:19:48;2.00;;;1.60;;
10201;SDS011;5143;42.584;23.164;2023-06-10T09:22:16;2.50;;;1.57;;
10201;SDS011;5143;42.584;23.164;2023-06-10T09:24:43;2.27;;;1.83;;
10201;SDS011;5143;42.584;23.164;2023-06-10T09:27:09;2.17;;;1.40;;
10201;SDS011;5143;42.584;23.164;2023-06-10T09:29:45;4.63;;;1.50;;
10201;SDS011;5143;42.584;23.164;2023-06-10T09:32:12;2.70;;;1.93;;
10201;SDS011;5143;42.584;23.164;2023-06-10T09:34:38;5.00;;;1.87;;
10201;SDS011;5143;42.584;23.164;2023-06-10T09:37:05;3.27;;;2.13;;
10201;SDS011;5143;42.584;23.164;2023-06-10T09:39:34;7.73;;;2.33;;
10201;SDS011;5143;42.584;23.164;2023-06-10T09:42:01;2.90;;;2.10;;
10201;SDS011;5143;42.584;23.164;2023-06-10T09:44:27;8.60;;;2.10;;
10201;SDS011;5143;42.584;23.164;2023-06-10T09:46:56;3.73;;;2.43;;
10201;SDS011;5143;42.584;23.164;2023-06-10T09:49:24;2.87;;;2.47;;
10201;SDS011;5143;42.584;23.164;2023-06-10T09:51:55;3.73;;;2.00;;
10201;SDS011;5143;42.584;23.164;2023-06-10T09:54:21;3.00;;;2.37;;
10201;SDS011;5143;42.584;23.164;2023-06-10T09:56:49;5.03;;;2.20;;
10201;SDS011;5143;42.584;23.164;2023-06-10T09:59:22;8.37;;;2.53;;
10201;SDS011;5143;42.584;23.164;2023-06-10T10:01:54;3.00;;;2.17;;
10201;SDS011;5143;42.584;23.164;2023-06-10T10:04:23;3.47;;;2.30;;
10201;SDS011;5143;42.584;23.164;2023-06-10T10:06:49;3.67;;;2.43;;
10201;SDS011;5143;42.584;23.164;2023-06-10T10:09:16;5.23;;;2.20;;
10201;SDS011;5143;42.584;23.164;2023-06-10T10:11:42;9.03;;;2.43;;
10201;SDS011;5143;42.584;23.164;2023-06-10T10:14:11;3.37;;;2.47;;
10201;SDS011;5143;42.584;23.164;2023-06-10T10:16:40;4.00;;;2.60;;
10201;SDS011;5143;42.584;23.164;2023-06-10T10:19:07;3.63;;;2.40;;
10201;SDS011;5143;42.584;23.164;2023-06-10T10:21:35;3.80;;;2.40;;
10201;SDS011;5143;42.584;23.164;2023-06-10T10:24:05;3.10;;;2.13;;
10201;SDS011;5143;42.584;23.164;2023-06-10T10:26:33;4.10;;;2.60;;
10201;SDS011;5143;42.584;23.164;2023-06-10T10:29:05;6.73;;;2.57;;
10201;SDS011;5143;42.584;23.164;2023-06-10T10:31:35;4.30;;;2.20;;
10201;SDS011;5143;42.584;23.164;2023-06-10T10:34:02;5.60;;;2.37;;
10201;SDS011;5143;42.584;23.164;2023-06-10T10:36:31;7.00;;;2.47;;
10201;SDS011;5143;42.584;23.164;2023-06-10T10:38:57;2.43;;;2.10;;
10201;SDS011;5143;42.584;23.164;2023-06-10T10:41:27;5.00;;;2.83;;
10201;SDS011;5143;42.584;23.164;2023-06-10T10:43:53;4.87;;;2.23;;
10201;SDS011;5143;42.584;23.164;2023-06-10T10:46:20;3.03;;;2.00;;
10201;SDS011;5143;42.584;23.164;2023-06-10T10:48:51;6.00;;;2.13;;
10201;SDS011;5143;42.584;23.164;2023-06-10T10:51:18;7.53;;;2.53;;
10201;SDS011;5143;42.584;23.164;2023-06-10T10:53:44;2.93;;;2.20;;
10201;SDS011;5143;42.584;23.164;2023-06-10T10:56:31;3.70;;;2.30;;
10201;SDS011;5143;42.584;23.164;2023-06-10T10:59:04;2.67;;;2.27;;
10201;SDS011;5143;42.584;23.164;2023-06-10T11:01:39;10.73;;;2.53;;
10201;SDS011;5143;42.584;23.164;2023-06-10T11:04:07;3.97;;;2.67;;
10201;SDS011;5143;42.584;23.164;2023-06-10T11:06:35;2.63;;;2.27;;
10201;SDS011;5143;42.584;23.164;2023-06-10T11:09:02;9.70;;;2.53;;
10201;SDS011;5143;42.584;23.164;2023-06-10T11:11:49;2.40;;;2.03;;
10201;SDS011;5143;42.584;23.164;2023-06-10T11:14:15;2.67;;;2.17;;
10201;SDS011;5143;42.584;23.164;2023-06-10T11:16:52;4.18;;;2.22;;
10201;SDS011;5143;42.584;23.164;2023-06-10T11:22:15;5.03;;;2.70;;
10201;SDS011;5143;42.584;23.164;2023-06-10T11:24:44;3.43;;;2.63;;
10201;SDS011;5143;42.584;23.164;2023-06-10T11:27:16;5.50;;;2.63;;
10201;SDS011;5143;42.584;23.164;2023-06-10T11:29:58;5.00;;;2.77;;
10201;SDS011;5143;42.584;23.164;2023-06-10T11:32:43;3.33;;;2.30;;
10201;SDS011;5143;42.584;23.164;2023-06-10T11:35:10;5.47;;;2.43;;
10201;SDS011;5143;42.584;23.164;2023-06-10T11:37:37;3.17;;;2.47;;
10201;SDS011;5143;42.584;23.164;2023-06-10T11:40:04;7.93;;;2.40;;
10201;SDS011;5143;42.584;23.164;2023-06-10T11:42:37;4.57;;;2.27;;
10201;SDS011;5143;42.584;23.164;2023-06-10T11:45:04;5.27;;;2.57;;
10201;SDS011;5143;42.584;23.164;2023-06-10T11:47:33;7.97;;;2.17;;
10201;SDS011;5143;42.584;23.164;2023-06-10T11:50:00;4.77;;;2.40;;
10201;SDS011;5143;42.584;23.164;2023-06-10T11:52:26;4.70;;;2.40;;
10201;SDS011;5143;42.584;23.164;2023-06-10T11:54:55;3.90;;;2.20;;
10201;SDS011;5143;42.584;23.164;2023-06-10T11:57:21;3.10;;;2.30;;
10201;SDS011;5143;42.584;23.164;2023-06-10T11:59:48;4.03;;;2.20;;
10201;SDS011;5143;42.584;23.164;2023-06-10T12:02:15;4.73;;;2.30;;
10201;SDS011;5143;42.584;23.164;2023-06-10T12:04:42;8.47;;;2.60;;
10201;SDS011;5143;42.584;23.164;2023-06-10T12:07:08;6.33;;;2.63;;
10201;SDS011;5143;42.584;23.164;2023-06-10T12:09:35;3.53;;;2.23;;
10201;SDS011;5143;42.584;23.164;2023-06-10T12:12:03;3.33;;;2.37;;
10201;SDS011;5143;42.584;23.164;2023-06-10T12:17:17;4.67;;;2.53;;
10201;SDS011;5143;42.584;23.164;2023-06-10T12:19:43;4.50;;;2.27;;
10201;SDS011;5143;42.584;23.164;2023-06-10T12:22:10;2.47;;;2.27;;
10201;SDS011;5143;42.584;23.164;2023-06-10T12:24:43;3.70;;;2.40;;
10201;SDS011;5143;42.584;23.164;2023-06-10T12:27:12;2.40;;;2.20;;
10201;SDS011;5143;42.584;23.164;2023-06-10T12:29:39;6.73;;;2.50;;
10201;SDS011;5143;42.584;23.164;2023-06-10T12:32:05;3.00;;;2.30;;
10201;SDS011;5143;42.584;23.164;2023-06-10T12:34:34;3.47;;;2.50;;
10201;SDS011;5143;42.584;23.164;2023-06-10T12:37:00;12.33;;;2.90;;
10201;SDS011;5143;42.584;23.164;2023-06-10T12:39:29;7.07;;;2.47;;
10201;SDS011;5143;42.584;23.164;2023-06-10T12:41:56;6.63;;;2.67;;
10201;SDS011;5143;42.584;23.164;2023-06-10T12:44:30;3.67;;;2.30;;
10201;SDS011;5143;42.584;23.164;2023-06-10T12:46:57;5.97;;;2.67;;
10201;SDS011;5143;42.584;23.164;2023-06-10T12:49:23;3.23;;;2.57;;
10201;SDS011;5143;42.584;23.164;2023-06-10T12:51:50;4.83;;;2.60;;
10201;SDS011;5143;42.584;23.164;2023-06-10T12:54:16;4.73;;;2.60;;
10201;SDS011;5143;42.584;23.164;2023-06-10T12:56:43;3.77;;;2.20;;
10201;SDS011;5143;42.584;23.164;2023-06-10T12:59:09;4.40;;;2.50;;
10201;SDS011;5143;42.584;23.164;2023-06-10T13:01:38;6.67;;;2.50;;
10201;SDS011;5143;42.584;23.164;2023-06-10T13:04:05;7.10;;;2.93;;
10201;SDS011;5143;42.584;23.164;2023-06-10T13:06:32;10.63;;;2.87;;
10201;SDS011;5143;42.584;23.164;2023-06-10T13:09:01;6.77;;;2.90;;
10201;SDS011;5143;42.584;23.164;2023-06-10T13:11:29;3.47;;;2.80;;
10201;SDS011;5143;42.584;23.164;2023-06-10T13:13:55;8.90;;;2.80;;
10201;SDS011;5143;42.584;23.164;2023-06-10T13:16:22;4.10;;;2.70;;
10201;SDS011;5143;42.584;23.164;2023-06-10T13:18:50;4.07;;;2.77;;
10201;SDS011;5143;42.584;23.164;2023-06-10T13:21:16;9.43;;;3.07;;
10201;SDS011;5143;42.584;23.164;2023-06-10T13:23:43;9.87;;;2.87;;
10201;SDS011;5143;42.584;23.164;2023-06-10T13:26:11;3.07;;;2.43;;
10201;SDS011;5143;42.584;23.164;2023-06-10T13:28:37;5.07;;;2.50;;
10201;SDS011;5143;42.584;23.164;2023-06-10T13:31:04;4.93;;;2.50;;
10201;SDS011;5143;42.584;23.164;2023-06-10T13:33:31;5.97;;;2.90;;
10201;SDS011;5143;42.584;23.164;2023-06-10T13:35:59;7.83;;;3.07;;
10201;SDS011;5143;42.584;23.164;2023-06-10T13:38:25;6.27;;;3.10;;
10201;SDS011;5143;42.584;23.164;2023-06-10T13:40:51;15.27;;;3.40;;
10201;SDS011;5143;42.584;23.164;2023-06-10T13:43:18;4.93;;;2.90;;
10201;SDS011;5143;42.584;23.164;2023-06-10T13:45:44;5.67;;;3.23;;
10201;SDS011;5143;42.584;23.164;2023-06-10T13:48:11;5.47;;;2.90;;
10201;SDS011;5143;42.584;23.164;2023-06-10T13:50:38;6.80;;;3.50;;
10201;SDS011;5143;42.584;23.164;2023-06-10T13:53:06;5.27;;;2.90;;
10201;SDS011;5143;42.584;23.164;2023-06-10T13:55:32;4.33;;;3.10;;
10201;SDS011;5143;42.584;23.164;2023-06-10T13:57:59;4.27;;;3.20;;
10201;SDS011;5143;42.584;23.164;2023-06-10T14:00:25;5.23;;;3.13;;
10201;SDS011;5143;42.584;23.164;2023-06-10T14:02:52;6.47;;;2.80;;
10201;SDS011;5143;42.584;23.164;2023-06-10T14:05:19;8.27;;;3.43;;
10201;SDS011;5143;42.584;23.164;2023-06-10T14:07:45;6.83;;;4.10;;
10201;SDS011;5143;42.584;23.164;2023-06-10T14:10:13;9.80;;;4.17;;
10201;SDS011;5143;42.584;23.164;2023-06-10T14:12:39;6.77;;;3.90;;
10201;SDS011;5143;42.584;23.164;2023-06-10T14:15:07;6.90;;;3.60;;
10201;SDS011;5143;42.584;23.164;2023-06-10T14:17:34;9.93;;;3.90;;
10201;SDS011;5143;42.584;23.164;2023-06-10T14:20:01;5.00;;;3.57;;
10201;SDS011;5143;42.584;23.164;2023-06-10T14:22:27;6.60;;;3.60;;
10201;SDS011;5143;42.584;23.164;2023-06-10T14:24:54;8.37;;;3.80;;
10201;SDS011;5143;42.584;23.164;2023-06-10T14:27:22;6.27;;;3.80;;
10201;SDS011;5143;42.584;23.164;2023-06-10T14:29:48;7.53;;;3.50;;
10201;SDS011;5143;42.584;23.164;2023-06-10T14:32:14;7.57;;;3.87;;
10201;SDS011;5143;42.584;23.164;2023-06-10T14:34:41;9.93;;;4.43;;
10201;SDS011;5143;42.584;23.164;2023-06-10T14:37:09;5.27;;;3.83;;
10201;SDS011;5143;42.584;23.164;2023-06-10T14:39:36;7.30;;;4.10;;
10201;SDS011;5143;42.584;23.164;2023-06-10T14:42:02;7.33;;;4.10;;
10201;SDS011;5143;42.584;23.164;2023-06-10T14:44:30;6.13;;;4.33;;
10201;SDS011;5143;42.584;23.164;2023-06-10T14:46:57;8.00;;;4.37;;
10201;SDS011;5143;42.584;23.164;2023-06-10T14:49:23;6.40;;;4.03;;